Time;durP1;ratioP1;P1;durP2;ratioP2;P2;SDS_P1;SDS_P2;PMS_P1;PMS_P2;Temp;Humidity;BMP_temperature;BMP_pressure;BME280_temperature;BME280_humidity;BME280_pressure;Samples;Min_cycle;Max_cycle;Signal;HPM_P1;HPM_P2
2021/10/26 00:00:19;;;;;;;31.52;11.68;;;1.30;1.00;;;;;;4420151;28;658187;-67
2021/10/26 00:03:07;;;;;;;39.87;12.83;;;1.30;1.00;;;;;;4399479;28;657935;-67
2021/10/26 00:05:55;;;;;;;37.67;12.77;;;1.30;1.00;;;;;;4422459;28;658658;-67
2021/10/26 00:08:42;;;;;;;35.27;11.87;;;1.20;1.00;;;;;;4396216;28;659062;-67
2021/10/26 00:11:30;;;;;;;25.97;10.47;;;1.20;1.00;;;;;;4418230;28;657145;-67
2021/10/26 00:14:19;;;;;;;33.08;11.65;;;1.20;1.00;;;;;;4418908;28;657935;-67
2021/10/26 00:17:06;;;;;;;33.50;11.43;;;1.10;1.00;;;;;;4416117;28;657594;-67
2021/10/26 00:19:54;;;;;;;29.33;10.57;;;1.20;1.00;;;;;;4439197;28;658041;-67
2021/10/26 00:22:41;;;;;;;30.40;10.57;;;1.20;1.00;;;;;;4416620;28;657760;-67
2021/10/26 00:25:29;;;;;;;28.87;10.90;;;1.20;1.00;;;;;;4433407;28;657459;-67
2021/10/26 00:28:17;;;;;;;30.23;10.57;;;1.10;1.00;;;;;;4415575;28;658959;-67
2021/10/26 00:31:06;;;;;;;28.85;10.75;;;1.10;1.00;;;;;;4438297;28;658390;-67
2021/10/26 00:33:54;;;;;;;26.83;10.43;;;1.10;1.00;;;;;;4409412;28;659126;-67
2021/10/26 00:36:41;;;;;;;29.67;10.87;;;1.10;1.00;;;;;;4415196;28;657549;-67
2021/10/26 00:39:29;;;;;;;28.93;9.87;;;1.10;1.00;;;;;;4438341;28;658121;-67
2021/10/26 00:42:17;;;;;;;29.07;10.60;;;1.10;1.00;;;;;;4424368;28;656741;-67
2021/10/26 00:45:05;;;;;;;25.60;10.07;;;1.10;1.00;;;;;;4439193;28;657825;-67
2021/10/26 00:47:54;;;;;;;24.02;9.68;;;1.10;1.00;;;;;;4418789;28;657686;-67
2021/10/26 00:50:42;;;;;;;23.20;8.73;;;1.10;1.00;;;;;;4425204;28;656316;-67
2021/10/26 00:53:29;;;;;;;32.30;10.17;;;1.10;1.00;;;;;;4441025;28;657474;-67
2021/10/26 00:56:17;;;;;;;22.83;8.53;;;1.10;1.00;;;;;;4415719;28;658398;-67
2021/10/26 00:59:05;;;;;;;24.17;8.93;;;1.10;1.00;;;;;;4442336;28;657057;-67
2021/10/26 01:01:52;;;;;;;26.30;9.27;;;1.10;1.00;;;;;;4419335;28;659299;-67
2021/10/26 01:04:41;;;;;;;24.30;8.60;;;1.00;1.00;;;;;;4446672;28;656318;-67
2021/10/26 01:07:29;;;;;;;22.90;9.15;;;1.00;1.00;;;;;;4416721;28;657210;-67
2021/10/26 01:10:16;;;;;;;28.73;9.00;;;1.00;1.00;;;;;;4422935;28;657526;-67
2021/10/26 01:13:04;;;;;;;23.97;9.67;;;1.00;1.00;;;;;;4439790;28;657398;-67
2021/10/26 01:15:54;;;;;;;23.23;8.93;;;1.00;1.00;;;;;;4419686;28;656734;-66
2021/10/26 01:18:41;;;;;;;28.77;8.90;;;1.00;1.00;;;;;;4422597;28;656565;-67
2021/10/26 01:21:31;;;;;;;23.13;8.43;;;1.00;1.00;;;;;;4438365;28;656706;-67
2021/10/26 01:24:18;;;;;;;24.13;8.73;;;1.00;1.00;;;;;;4421096;28;656983;-67
2021/10/26 01:27:06;;;;;;;22.80;7.67;;;1.00;1.00;;;;;;4423761;28;656630;-67
2021/10/26 01:29:53;;;;;;;24.97;8.57;;;1.00;1.00;;;;;;4444686;28;657634;-67
2021/10/26 01:32:41;;;;;;;21.63;8.67;;;1.00;1.00;;;;;;4421642;28;656592;-67
2021/10/26 01:35:29;;;;;;;19.80;7.55;;;1.00;1.00;;;;;;4437777;28;658324;-68
2021/10/26 01:38:17;;;;;;;22.40;7.60;;;1.00;1.00;;;;;;4422359;28;656614;-67
2021/10/26 01:41:06;;;;;;;20.13;8.50;;;1.00;1.00;;;;;;4442984;28;656626;-66
2021/10/26 01:43:54;;;;;;;21.20;7.93;;;1.00;1.00;;;;;;4442457;28;657899;-67
2021/10/26 01:46:42;;;;;;;19.27;7.57;;;1.00;1.00;;;;;;4419941;28;656329;-67
2021/10/26 01:49:29;;;;;;;18.90;7.23;;;1.00;1.00;;;;;;4435270;28;657465;-67
2021/10/26 01:52:17;;;;;;;19.97;8.00;;;1.10;1.00;;;;;;4425290;28;656990;-67
2021/10/26 01:55:06;;;;;;;21.77;7.80;;;1.10;1.00;;;;;;4433056;28;656715;-68
2021/10/26 01:57:54;;;;;;;21.70;7.87;;;1.10;1.00;;;;;;4420172;28;657701;-67
2021/10/26 02:00:41;;;;;;;22.07;8.53;;;1.10;1.00;;;;;;4418336;28;656862;-67
2021/10/26 02:03:29;;;;;;;21.90;8.17;;;1.10;1.00;;;;;;4438709;28;657353;-67
2021/10/26 02:06:16;;;;;;;22.70;7.83;;;1.20;1.00;;;;;;4420747;28;657051;-67
2021/10/26 02:09:04;;;;;;;17.57;7.27;;;1.20;1.00;;;;;;4434263;28;657269;-67
2021/10/26 02:11:53;;;;;;;20.35;7.90;;;1.20;1.00;;;;;;4414743;28;656773;-67
2021/10/26 02:14:42;;;;;;;18.80;7.57;;;1.20;1.00;;;;;;4421593;28;657001;-67
2021/10/26 02:17:29;;;;;;;19.43;7.73;;;1.30;1.00;;;;;;4438095;28;656467;-67
2021/10/26 02:20:17;;;;;;;19.17;7.50;;;1.30;1.00;;;;;;4423624;28;657391;-67
2021/10/26 02:23:05;;;;;;;23.30;7.90;;;1.30;1.00;;;;;;4437709;28;656539;-67
2021/10/26 02:25:52;;;;;;;19.03;7.57;;;1.30;1.00;;;;;;4421897;28;658183;-67
2021/10/26 02:28:41;;;;;;;19.20;7.20;;;1.40;1.00;;;;;;4443647;28;656151;-67
2021/10/26 02:31:29;;;;;;;23.93;7.50;;;1.40;1.00;;;;;;4411117;28;657975;-67
2021/10/26 02:34:16;;;;;;;15.27;7.30;;;1.50;1.00;;;;;;4422989;28;656564;-67
2021/10/26 02:37:04;;;;;;;15.93;6.37;;;1.40;1.00;;;;;;4445501;28;656819;-67
2021/10/26 02:39:52;;;;;;;17.83;7.47;;;1.40;1.00;;;;;;4425191;28;656567;-67
2021/10/26 02:42:39;;;;;;;18.10;7.10;;;1.40;1.00;;;;;;4432179;28;656646;-67
2021/10/26 02:45:29;;;;;;;22.70;7.70;;;1.40;1.00;;;;;;4424173;28;657039;-67
2021/10/26 02:48:16;;;;;;;23.13;7.07;;;1.40;1.00;;;;;;4417984;28;657929;-67
2021/10/26 02:51:04;;;;;;;21.53;7.90;;;1.40;1.00;;;;;;4440544;28;659247;-67
2021/10/26 02:53:51;;;;;;;15.87;7.00;;;1.40;1.00;;;;;;4421364;28;657000;-67
2021/10/26 02:56:39;;;;;;;19.40;7.27;;;1.40;1.00;;;;;;4438721;28;656170;-67
2021/10/26 02:59:26;;;;;;;19.27;7.67;;;1.50;1.00;;;;;;4421808;28;656574;-67
2021/10/26 03:02:16;;;;;;;22.37;7.40;;;1.50;1.00;;;;;;4436711;28;657465;-67
2021/10/26 03:05:04;;;;;;;17.53;7.00;;;1.40;1.00;;;;;;4415372;28;657795;-67
2021/10/26 03:07:52;;;;;;;18.73;6.90;;;1.50;1.00;;;;;;4420480;28;656854;-67
2021/10/26 03:10:40;;;;;;;18.83;6.83;;;1.50;1.00;;;;;;4440025;28;657102;-67
2021/10/26 03:13:27;;;;;;;17.20;6.60;;;1.70;1.00;;;;;;4413902;28;658391;-67
2021/10/26 03:16:15;;;;;;;18.07;6.83;;;1.70;1.00;;;;;;4437911;28;656305;-67
2021/10/26 03:19:05;;;;;;;16.20;6.43;;;1.80;1.00;;;;;;4417899;28;657996;-67
2021/10/26 03:21:53;;;;;;;14.80;6.23;;;1.90;1.00;;;;;;4418751;28;657796;-67
2021/10/26 03:24:40;;;;;;;15.63;6.57;;;2.00;1.00;;;;;;4427888;28;656948;-67
2021/10/26 03:27:29;;;;;;;19.80;7.20;;;2.10;1.00;;;;;;4437185;28;658287;-67
2021/10/26 03:30:17;;;;;;;14.87;7.00;;;2.30;1.00;;;;;;4414134;28;657405;-67
2021/10/26 03:33:04;;;;;;;15.83;6.57;;;2.40;1.00;;;;;;4439058;28;656939;-67
2021/10/26 03:35:54;;;;;;;15.77;7.10;;;2.40;1.00;;;;;;4421816;28;656782;-67
2021/10/26 03:38:43;;;;;;;16.43;6.77;;;2.50;1.00;;;;;;4419512;28;656823;-67
2021/10/26 03:41:30;;;;;;;18.67;7.40;;;2.50;1.00;;;;;;4428839;28;656418;-67
2021/10/26 03:44:18;;;;;;;17.73;6.77;;;2.60;1.00;;;;;;4439047;28;657897;-68
2021/10/26 03:47:05;;;;;;;15.20;6.00;;;2.60;1.00;;;;;;4417505;28;657038;-67
2021/10/26 03:49:54;;;;;;;19.57;7.00;;;2.60;1.00;;;;;;4435958;28;658218;-67
2021/10/26 03:52:43;;;;;;;19.17;6.77;;;2.60;1.00;;;;;;4419072;28;656711;-67
2021/10/26 03:55:30;;;;;;;15.17;6.50;;;2.60;1.00;;;;;;4414564;28;657658;-67
2021/10/26 03:58:18;;;;;;;21.67;6.60;;;2.60;1.00;;;;;;4437253;28;657835;-67
2021/10/26 04:01:06;;;;;;;17.70;7.20;;;2.60;1.00;;;;;;4417691;28;656292;-67
2021/10/26 04:03:54;;;;;;;16.50;6.50;;;2.60;1.00;;;;;;4441020;28;657087;-67
2021/10/26 04:06:44;;;;;;;16.57;6.50;;;2.60;1.00;;;;;;4427024;28;656830;-67
2021/10/26 04:09:44;;;;;;;13.25;6.05;;;2.50;1.00;;;;;;4418480;28;657635;-67
2021/10/26 04:12:32;;;;;;;18.03;6.93;;;2.50;1.00;;;;;;4394984;28;657532;-67
2021/10/26 04:15:19;;;;;;;16.03;6.70;;;2.50;1.00;;;;;;4439464;28;656421;-67
2021/10/26 04:18:07;;;;;;;17.87;6.70;;;2.40;1.00;;;;;;4420108;28;656544;-67
2021/10/26 04:20:54;;;;;;;13.53;6.43;;;2.30;1.00;;;;;;4439070;28;656210;-67
2021/10/26 04:23:42;;;;;;;18.93;7.00;;;2.30;1.00;;;;;;4425307;28;656816;-67
2021/10/26 04:26:31;;;;;;;15.87;7.10;;;2.20;1.00;;;;;;4439730;28;656904;-67
2021/10/26 04:29:18;;;;;;;21.23;7.27;;;2.20;1.00;;;;;;4420057;28;657306;-67
2021/10/26 04:32:07;;;;;;;15.77;7.07;;;2.10;1.00;;;;;;4421350;28;657015;-67
2021/10/26 04:34:55;;;;;;;17.33;6.53;;;2.10;1.00;;;;;;4438573;28;656662;-66
2021/10/26 04:37:43;;;;;;;18.83;6.90;;;2.00;1.00;;;;;;4441617;28;657964;-67
2021/10/26 04:40:32;;;;;;;19.07;7.30;;;1.90;1.00;;;;;;4424016;28;657445;-67
2021/10/26 04:43:21;;;;;;;14.57;6.43;;;1.90;1.00;;;;;;4443901;28;656317;-67
2021/10/26 04:46:09;;;;;;;15.23;6.90;;;1.80;1.00;;;;;;4419368;28;657785;-67
2021/10/26 04:48:56;;;;;;;22.60;8.38;;;1.80;1.00;;;;;;4421870;28;656311;-67
2021/10/26 04:51:44;;;;;;;22.87;7.90;;;1.60;1.00;;;;;;4438281;28;657301;-67
2021/10/26 04:54:32;;;;;;;18.75;7.72;;;1.60;1.00;;;;;;4421544;28;657601;-67
2021/10/26 04:57:19;;;;;;;17.33;6.90;;;1.50;1.00;;;;;;4443166;28;657703;-67
2021/10/26 05:00:10;;;;;;;53.93;11.67;;;1.40;1.00;;;;;;4416628;28;656873;-67
2021/10/26 05:02:58;;;;;;;42.87;10.77;;;1.40;1.00;;;;;;4419552;28;659246;-67
2021/10/26 05:06:16;;;;;;;19.93;8.00;;;1.30;1.00;;;;;;4424180;28;657541;-67
2021/10/26 05:09:04;;;;;;;23.10;7.97;;;1.20;1.00;;;;;;4418874;28;657462;-67
2021/10/26 05:11:52;;;;;;;21.65;8.20;;;1.10;1.00;;;;;;4419262;28;656396;-67
2021/10/26 05:14:40;;;;;;;23.13;7.73;;;1.10;1.00;;;;;;4442772;28;657002;-67
2021/10/26 05:17:29;;;;;;;23.53;8.13;;;1.10;1.00;;;;;;4418654;28;658117;-67
2021/10/26 05:20:19;;;;;;;22.83;7.47;;;1.00;1.00;;;;;;4427620;28;656413;-67
2021/10/26 05:23:07;;;;;;;75.43;15.73;;;1.00;1.00;;;;;;4420680;28;656781;-67
2021/10/26 05:25:54;;;;;;;1086.10;215.07;;;1.00;1.00;;;;;;4442561;28;657516;-67
2021/10/26 05:28:42;;;;;;;397.83;67.83;;;1.00;1.00;;;;;;4422570;28;661784;-67
2021/10/26 05:31:30;;;;;;;134.10;27.67;;;1.00;1.00;;;;;;4439557;28;659104;-67
2021/10/26 05:34:19;;;;;;;30.47;11.10;;;1.00;1.00;;;;;;4420025;28;660234;-67
2021/10/26 05:37:07;;;;;;;52.30;13.67;;;1.00;1.00;;;;;;4421083;28;657942;-67
2021/10/26 05:39:55;;;;;;;31.52;9.40;;;0.90;1.00;;;;;;4442712;28;658128;-67
2021/10/26 05:42:42;;;;;;;27.00;9.60;;;0.90;1.00;;;;;;4419735;28;657612;-68
2021/10/26 05:45:30;;;;;;;23.70;8.97;;;0.80;1.00;;;;;;4442792;28;656557;-73
2021/10/26 05:48:18;;;;;;;22.33;9.07;;;0.90;9.20;;;;;;4445804;28;656662;-72
2021/10/26 05:51:08;;;;;;;19.80;7.93;;;0.90;11.70;;;;;;4419970;28;656560;-72
2021/10/26 05:53:56;;;;;;;21.50;8.00;;;1.00;12.00;;;;;;4425519;28;657582;-72
2021/10/26 05:56:43;;;;;;;64.00;18.43;;;1.10;18.10;;;;;;4449148;28;658581;-71
2021/10/26 05:59:31;;;;;;;240.00;83.93;;;1.00;12.20;;;;;;4423205;28;658876;-72
2021/10/26 06:02:19;;;;;;;159.90;56.00;;;1.00;1.30;;;;;;4436967;28;660117;-71
2021/10/26 06:05:07;;;;;;;99.43;36.37;;;1.10;10.40;;;;;;4421974;28;658760;-71
2021/10/26 06:07:56;;;;;;;111.50;40.47;;;1.20;9.00;;;;;;4437404;28;658690;-72
2021/10/26 06:10:46;;;;;;;121.07;44.97;;;1.20;3.30;;;;;;4424520;28;659480;-70
2021/10/26 06:13:37;;;;;;;94.97;35.17;;;1.30;1.90;;;;;;4415145;28;659430;-71
2021/10/26 06:16:24;;;;;;;108.00;38.47;;;1.30;1.00;;;;;;4413422;28;657818;-71
2021/10/26 06:19:12;;;;;;;100.30;35.70;;;1.40;1.00;;;;;;4416930;28;658774;-71
2021/10/26 06:22:00;;;;;;;102.50;35.50;;;1.50;1.00;;;;;;4440920;28;658305;-71
2021/10/26 06:24:49;;;;;;;98.17;32.53;;;1.60;1.00;;;;;;4416179;28;659310;-71
2021/10/26 06:27:37;;;;;;;94.90;28.87;;;1.70;1.00;;;;;;4419414;28;657906;-72
2021/10/26 06:30:25;;;;;;;89.23;28.67;;;1.80;1.00;;;;;;4440478;28;657840;-72
2021/10/26 06:33:12;;;;;;;71.97;26.33;;;1.90;1.00;;;;;;4414251;28;658862;-71
2021/10/26 06:36:00;;;;;;;66.67;24.67;;;2.00;1.00;;;;;;4431909;28;657848;-71
2021/10/26 06:38:47;;;;;;;68.93;24.43;;;2.10;1.00;;;;;;4414048;28;658776;-72
2021/10/26 06:41:37;;;;;;;75.70;25.60;;;2.20;1.00;;;;;;4438225;28;658105;-71
2021/10/26 06:44:24;;;;;;;79.20;25.97;;;2.50;1.00;;;;;;4415074;28;658248;-72
2021/10/26 06:47:14;;;;;;;89.23;27.30;;;2.60;1.00;;;;;;4420771;28;658157;-71
2021/10/26 06:50:01;;;;;;;92.17;29.77;;;2.80;1.00;;;;;;4420654;28;658124;-71
2021/10/26 06:52:49;;;;;;;91.07;29.80;;;3.00;1.00;;;;;;4437465;28;657766;-71
2021/10/26 06:55:37;;;;;;;110.10;31.43;;;3.30;1.00;;;;;;4413774;28;657528;-72
2021/10/26 06:58:26;;;;;;;91.50;33.37;;;3.50;1.00;;;;;;4432198;28;658694;-71
2021/10/26 07:01:14;;;;;;;81.67;32.27;;;3.70;1.00;;;;;;4410099;28;658150;-71
2021/10/26 07:04:05;;;;;;;74.13;27.80;;;4.00;1.00;;;;;;4410617;28;657570;-71
2021/10/26 07:06:57;;;;;;;66.57;25.53;;;4.20;1.00;;;;;;4417623;28;659301;-71
2021/10/26 07:09:48;;;;;;;59.93;24.20;;;4.60;1.00;;;;;;4404080;28;657998;-72
2021/10/26 07:12:38;;;;;;;93.87;36.63;;;4.70;1.00;;;;;;4421462;28;658050;-72
2021/10/26 07:15:32;;;;;;;112.93;48.93;;;5.00;1.00;;;;;;4422658;28;657576;-72
2021/10/26 07:18:22;;;;;;;80.82;30.75;;;5.30;1.00;;;;;;4415796;28;658972;-72
2021/10/26 07:21:12;;;;;;;156.20;39.33;;;5.50;1.00;;;;;;4393176;28;657870;-73
2021/10/26 07:24:00;;;;;;;185.23;43.95;;;5.80;1.00;;;;;;4437846;28;658476;-72
2021/10/26 07:26:48;;;;;;;126.65;36.35;;;6.00;1.00;;;;;;4418517;28;659359;-72
2021/10/26 07:29:36;;;;;;;89.83;27.67;;;6.30;99.90;;;;;;4413915;28;658362;-72
2021/10/26 07:32:25;;;;;;;54.20;20.87;;;6.50;99.90;;;;;;4434285;28;660294;-72
2021/10/26 07:35:13;;;;;;;47.90;18.83;;;6.70;99.90;;;;;;4411301;28;659452;-72
2021/10/26 07:38:00;;;;;;;47.30;20.13;;;6.90;7.20;;;;;;4421645;28;658886;-73
2021/10/26 07:40:48;;;;;;;45.43;18.67;;;7.00;1.00;;;;;;4440577;28;659260;-71
2021/10/26 07:43:36;;;;;;;47.90;19.00;;;7.20;1.00;;;;;;4418446;28;657482;-72
2021/10/26 07:46:23;;;;;;;48.20;19.13;;;7.30;99.90;;;;;;4433881;28;658675;-72
2021/10/26 07:49:12;;;;;;;40.87;18.67;;;7.50;99.90;;;;;;4418985;28;658414;-72
2021/10/26 07:52:01;;;;;;;41.73;17.87;;;7.60;1.00;;;;;;4424603;28;659318;-73
2021/10/26 07:54:52;;;;;;;38.03;17.20;;;7.70;75.00;;;;;;4440431;28;657816;-72
2021/10/26 07:57:40;;;;;;;42.40;18.60;;;7.90;99.90;;;;;;4408163;28;659024;-73
2021/10/26 08:00:30;;;;;;;46.37;18.13;;;8.00;99.90;;;;;;4438439;28;659008;-72
2021/10/26 08:03:18;;;;;;;40.57;16.97;;;8.30;1.00;;;;;;4416238;28;658689;-72
2021/10/26 08:06:07;;;;;;;32.43;14.60;;;8.50;1.00;;;;;;4423931;28;658221;-72
2021/10/26 08:08:55;;;;;;;34.07;15.20;;;8.90;1.00;;;;;;4435412;28;657397;-72
2021/10/26 08:11:42;;;;;;;30.80;12.47;;;9.30;1.00;;;;;;4423756;28;658214;-72
2021/10/26 08:14:31;;;;;;;25.97;11.53;;;9.30;99.90;;;;;;4437994;28;658888;-73
2021/10/26 08:17:19;;;;;;;21.77;10.23;;;9.30;1.00;;;;;;4445328;28;659455;-71
2021/10/26 08:20:08;;;;;;;26.60;9.57;;;9.30;99.90;;;;;;4422943;28;657464;-72
2021/10/26 08:22:57;;;;;;;22.83;8.83;;;9.10;56.10;;;;;;4432575;28;657774;-73
2021/10/26 08:25:48;;;;;;;25.30;9.73;;;9.10;44.80;;;;;;4441691;28;657593;-71
2021/10/26 08:28:36;;;;;;;20.00;9.20;;;9.30;92.10;;;;;;4400085;28;658185;-72
2021/10/26 08:31:27;;;;;;;22.07;8.87;;;9.70;99.90;;;;;;4441804;28;658165;-71
2021/10/26 08:34:19;;;;;;;18.13;8.27;;;10.30;1.00;;;;;;4415350;28;657768;-72
2021/10/26 08:37:07;;;;;;;20.00;8.53;;;10.40;1.00;;;;;;4419560;28;657391;-71
2021/10/26 08:39:56;;;;;;;25.57;9.13;;;10.70;99.90;;;;;;4443571;28;657308;-72
2021/10/26 08:42:44;;;;;;;26.67;11.00;;;10.80;99.90;;;;;;4423722;28;659942;-71
2021/10/26 08:45:32;;;;;;;25.27;9.93;;;10.80;99.90;;;;;;4427889;28;659884;-72
2021/10/26 08:48:21;;;;;;;25.77;10.10;;;10.90;1.00;;;;;;4437845;28;659001;-71
2021/10/26 08:51:09;;;;;;;23.97;10.30;;;11.00;1.00;;;;;;4417479;28;659658;-72
2021/10/26 08:53:57;;;;;;;23.70;9.80;;;11.00;1.00;;;;;;4419768;28;658915;-71
2021/10/26 08:56:47;;;;;;;22.43;10.40;;;11.20;1.00;;;;;;4438825;28;658593;-71
2021/10/26 08:59:36;;;;;;;22.97;10.57;;;11.30;99.90;;;;;;4416566;28;659644;-71
2021/10/26 09:02:33;;;;;;;19.63;9.50;;;11.50;99.90;;;;;;4440405;28;660725;-71
2021/10/26 09:05:22;;;;;;;24.17;8.97;;;11.50;99.90;;;;;;4413373;28;658484;-71
2021/10/26 09:08:11;;;;;;;22.40;9.23;;;11.30;99.90;;;;;;4438837;28;659725;-71
2021/10/26 09:11:03;;;;;;;21.30;9.52;;;11.20;99.90;;;;;;4414147;28;659251;-70
2021/10/26 09:16:58;;;;;;;22.03;9.13;;;11.10;99.90;;;;;;4413695;28;659187;-71
2021/10/26 09:19:46;;;;;;;22.05;9.77;;;11.30;99.90;;;;;;4419273;28;658367;-72
2021/10/26 09:22:33;;;;;;;20.40;9.57;;;11.20;99.90;;;;;;4447167;28;659294;-71
2021/10/26 09:25:21;;;;;;;21.73;9.93;;;11.10;99.90;;;;;;4421222;28;659105;-71
2021/10/26 09:28:13;;;;;;;26.23;10.30;;;11.20;99.90;;;;;;4439064;28;659444;-71
2021/10/26 09:31:07;;;;;;;19.40;8.97;;;11.00;99.90;;;;;;4418117;28;659982;-71
2021/10/26 09:34:02;;;;;;;20.93;9.17;;;11.30;99.90;;;;;;4424372;28;658594;-71
2021/10/26 09:36:52;;;;;;;23.73;9.10;;;11.40;99.90;;;;;;4442396;28;658379;-72
2021/10/26 09:39:40;;;;;;;18.80;9.10;;;11.40;99.90;;;;;;4439384;28;660048;-71
2021/10/26 09:42:28;;;;;;;23.83;9.30;;;11.60;99.90;;;;;;4412674;28;659874;-71
2021/10/26 09:45:31;;;;;;;21.43;8.60;;;11.40;99.90;;;;;;4412540;28;659019;-72
2021/10/26 09:48:20;;;;;;;20.50;8.57;;;11.50;99.90;;;;;;4416331;28;659558;-71
2021/10/26 09:51:09;;;;;;;21.47;8.20;;;11.40;99.90;;;;;;4412441;28;660342;-71
2021/10/26 09:53:58;;;;;;;15.37;8.27;;;11.40;99.90;;;;;;4419457;28;659140;-71
2021/10/26 09:57:05;;;;;;;27.08;9.50;;;11.40;99.90;;;;;;4422849;28;659047;-73
2021/10/26 09:59:53;;;;;;;18.93;8.57;;;11.40;99.90;;;;;;4393124;28;659812;-71
2021/10/26 10:02:41;;;;;;;19.90;9.40;;;11.40;99.90;;;;;;4419579;28;659145;-72
2021/10/26 10:05:31;;;;;;;18.23;9.20;;;11.20;99.90;;;;;;4441180;28;659511;-71
2021/10/26 10:08:20;;;;;;;21.53;10.60;;;11.10;99.90;;;;;;4417400;28;659159;-71
2021/10/26 10:11:12;;;;;;;24.60;11.40;;;11.10;99.90;;;;;;4416661;28;660131;-71
2021/10/26 10:14:00;;;;;;;25.77;10.37;;;11.10;99.90;;;;;;4401915;28;659901;-71
2021/10/26 10:16:48;;;;;;;21.23;10.63;;;11.20;99.90;;;;;;4387800;28;660631;-71
2021/10/26 10:19:36;;;;;;;24.50;10.77;;;11.30;99.90;;;;;;4383152;28;659591;-71
2021/10/26 10:22:28;;;;;;;22.17;10.53;;;11.30;99.90;;;;;;4408584;28;659663;-72
2021/10/26 10:25:16;;;;;;;19.97;10.40;;;11.60;99.90;;;;;;4372963;28;659788;-72
2021/10/26 10:28:03;;;;;;;21.63;9.13;;;12.20;99.90;;;;;;4421172;28;661176;-71
2021/10/26 10:30:51;;;;;;;21.77;9.30;;;12.70;99.90;;;;;;4395489;28;658575;-71
2021/10/26 10:33:39;;;;;;;15.83;7.63;;;13.10;99.90;;;;;;4418129;28;659907;-70
2021/10/26 10:36:27;;;;;;;12.37;6.40;;;13.30;99.90;;;;;;4407030;28;658829;-71
2021/10/26 10:39:16;;;;;;;20.63;8.00;;;13.20;99.90;;;;;;4419736;28;659242;-72
2021/10/26 10:42:22;;;;;;;17.70;7.77;;;13.30;99.90;;;;;;4401654;28;659781;-71
2021/10/26 10:45:23;;;;;;;18.17;7.63;;;13.40;86.40;;;;;;4388879;28;659210;-72
2021/10/26 10:48:26;;;;;;;19.20;8.07;;;13.30;77.60;;;;;;4399275;28;658947;-72
2021/10/26 10:51:14;;;;;;;18.90;7.80;;;13.10;53.60;;;;;;4399748;28;658940;-71
2021/10/26 10:54:02;;;;;;;18.07;7.27;;;13.10;54.30;;;;;;4400176;28;658871;-72
2021/10/26 10:57:15;;;;;;;17.37;7.40;;;13.10;15.70;;;;;;4419146;28;659253;-71
2021/10/26 11:00:05;;;;;;;16.27;6.90;;;13.10;12.70;;;;;;4399099;28;659746;-71
2021/10/26 11:02:53;;;;;;;16.23;7.17;;;12.60;11.80;;;;;;4399007;28;659992;-71
2021/10/26 11:05:42;;;;;;;16.67;8.00;;;13.10;55.90;;;;;;4410256;28;658835;-73
2021/10/26 11:08:46;;;;;;;17.20;8.93;;;13.50;12.80;;;;;;4422495;28;658618;-71
2021/10/26 11:11:34;;;;;;;18.53;8.97;;;14.50;76.50;;;;;;4396166;28;659546;-71
2021/10/26 11:14:23;;;;;;;20.90;8.90;;;15.40;26.30;;;;;;4420510;28;658502;-71
2021/10/26 11:17:50;;;;;;;19.75;9.00;;;15.70;1.00;;;;;;4417542;28;659185;-73
2021/10/26 11:20:51;;;;;;;19.73;9.03;;;15.70;1.00;;;;;;4418581;28;658542;-71
2021/10/26 11:23:41;;;;;;;23.10;8.57;;;16.00;1.00;;;;;;4418199;28;658389;-71
2021/10/26 11:26:32;;;;;;;19.93;8.53;;;15.80;1.00;;;;;;4409141;28;658473;-72
2021/10/26 11:29:29;;;;;;;16.77;7.80;;;15.70;1.00;;;;;;4410096;28;657767;-72
2021/10/26 11:32:18;;;;;;;17.63;8.13;;;15.30;1.00;;;;;;4416970;28;657814;-71
2021/10/26 11:35:17;;;;;;;16.63;8.00;;;15.30;1.00;;;;;;4419631;28;658198;-73
2021/10/26 11:38:07;;;;;;;18.33;8.57;;;15.90;1.00;;;;;;4409513;28;657943;-71
2021/10/26 11:40:55;;;;;;;21.33;8.27;;;16.60;1.00;;;;;;4437264;28;657197;-71
2021/10/26 11:43:44;;;;;;;16.60;8.73;;;16.90;1.00;;;;;;4416245;28;658726;-71
2021/10/26 11:46:34;;;;;;;17.87;8.83;;;16.80;1.00;;;;;;4420650;28;657526;-72
2021/10/26 11:49:23;;;;;;;18.70;8.70;;;16.80;1.00;;;;;;4419981;28;657887;-72
2021/10/26 11:52:11;;;;;;;14.70;7.80;;;17.00;1.00;;;;;;4422323;28;657535;-72
2021/10/26 11:54:58;;;;;;;20.90;9.20;;;16.70;1.00;;;;;;4437027;28;658434;-72
2021/10/26 11:57:46;;;;;;;18.77;8.87;;;15.90;1.00;;;;;;4418666;28;658558;-72
2021/10/26 12:00:34;;;;;;;16.07;8.20;;;15.90;1.00;;;;;;4435626;28;658667;-71
2021/10/26 12:03:23;;;;;;;14.83;8.13;;;15.70;1.00;;;;;;4415855;28;657457;-72
2021/10/26 12:06:11;;;;;;;19.63;9.50;;;15.00;1.00;;;;;;4417733;28;658201;-72
2021/10/26 12:09:00;;;;;;;18.70;9.10;;;15.10;1.00;;;;;;4432507;28;658338;-71
2021/10/26 12:11:48;;;;;;;20.93;9.80;;;15.20;1.00;;;;;;4425375;28;658228;-72
2021/10/26 12:14:36;;;;;;;20.00;9.90;;;14.90;1.00;;;;;;4417191;28;657850;-72
2021/10/26 12:17:25;;;;;;;22.83;10.30;;;14.80;1.00;;;;;;4433821;28;658755;-71
2021/10/26 12:20:16;;;;;;;22.03;9.20;;;15.30;1.00;;;;;;4408389;28;660001;-72
2021/10/26 12:23:05;;;;;;;20.73;10.03;;;15.80;1.00;;;;;;4411232;28;657309;-73
2021/10/26 12:25:57;;;;;;;21.30;9.63;;;16.40;1.00;;;;;;4436769;28;659472;-72
2021/10/26 12:28:55;;;;;;;19.67;10.23;;;16.40;1.00;;;;;;4409088;28;657697;-72
2021/10/26 12:31:43;;;;;;;21.73;10.03;;;16.50;1.00;;;;;;4383198;28;658958;-72
2021/10/26 12:34:33;;;;;;;21.33;9.77;;;17.00;1.00;;;;;;4409333;28;659259;-72
2021/10/26 12:37:31;;;;;;;21.83;9.57;;;17.00;1.00;;;;;;4415409;28;657467;-72
2021/10/26 12:40:20;;;;;;;19.20;9.57;;;16.80;1.00;;;;;;4417409;28;658339;-72
2021/10/26 12:43:08;;;;;;;19.03;9.50;;;16.70;1.00;;;;;;4410750;28;658609;-71
2021/10/26 12:45:57;;;;;;;19.63;9.13;;;16.30;1.00;;;;;;4419679;28;657737;-73
2021/10/26 12:48:44;;;;;;;22.47;9.70;;;16.40;1.00;;;;;;4437274;28;657751;-71
2021/10/26 12:51:32;;;;;;;23.00;8.37;;;16.50;1.00;;;;;;4424328;28;658106;-71
2021/10/26 12:54:22;;;;;;;18.80;9.27;;;16.50;1.00;;;;;;4443620;28;658146;-71
2021/10/26 12:57:09;;;;;;;21.20;8.67;;;16.10;1.00;;;;;;4422201;28;658185;-72
2021/10/26 13:00:25;;;;;;;16.10;8.17;;;16.10;1.00;;;;;;4423245;28;658906;-72
2021/10/26 13:03:15;;;;;;;23.03;8.53;;;15.80;1.00;;;;;;4412741;28;658161;-71
2021/10/26 13:06:06;;;;;;;20.70;9.03;;;15.60;1.00;;;;;;4421953;28;658744;-72
2021/10/26 13:08:54;;;;;;;21.33;9.37;;;16.20;1.00;;;;;;4416323;28;658967;-72
2021/10/26 13:11:43;;;;;;;18.37;8.57;;;16.40;1.00;;;;;;4425245;28;657357;-71
2021/10/26 13:14:36;;;;;;;19.63;7.97;;;16.00;1.00;;;;;;4419533;28;657487;-72
2021/10/26 13:17:26;;;;;;;18.80;8.17;;;15.80;1.00;;;;;;4421338;28;658841;-71
2021/10/26 13:20:16;;;;;;;15.37;7.80;;;15.70;1.00;;;;;;4422582;28;658638;-72
2021/10/26 13:23:06;;;;;;;14.53;6.53;;;15.90;1.00;;;;;;4423455;28;658089;-72
2021/10/26 13:25:56;;;;;;;12.07;5.93;;;16.10;1.00;;;;;;4418237;28;658403;-72
2021/10/26 13:28:46;;;;;;;14.30;6.37;;;16.30;1.00;;;;;;4417448;28;658591;-72
2021/10/26 13:31:35;;;;;;;12.57;6.27;;;16.20;1.00;;;;;;4421831;28;657734;-72
2021/10/26 13:34:22;;;;;;;13.70;6.00;;;16.40;1.00;;;;;;4416328;28;659441;-71
2021/10/26 13:37:10;;;;;;;11.83;5.97;;;16.20;1.00;;;;;;4447143;28;657995;-72
2021/10/26 13:39:57;;;;;;;11.37;5.90;;;16.10;1.00;;;;;;4419149;28;658104;-71
2021/10/26 13:42:46;;;;;;;13.57;6.10;;;16.50;1.00;;;;;;4432283;28;657720;-72
2021/10/26 13:45:39;;;;;;;16.90;6.53;;;16.70;1.00;;;;;;4437954;28;658628;-71
2021/10/26 13:48:27;;;;;;;12.70;6.57;;;16.30;1.00;;;;;;4392875;28;658210;-71
2021/10/26 13:51:16;;;;;;;15.53;6.60;;;15.90;1.00;;;;;;4443175;28;657439;-72
2021/10/26 13:54:04;;;;;;;15.03;6.63;;;16.30;1.00;;;;;;4411994;28;658368;-71
2021/10/26 13:56:52;;;;;;;16.77;6.70;;;16.20;1.00;;;;;;4418946;28;657885;-72
2021/10/26 13:59:39;;;;;;;15.90;6.27;;;16.30;1.00;;;;;;4437808;28;657933;-72
2021/10/26 14:02:29;;;;;;;19.43;7.50;;;15.80;1.00;;;;;;4420678;28;657649;-71
2021/10/26 14:05:17;;;;;;;16.93;6.80;;;15.10;1.00;;;;;;4411360;28;657122;-70
2021/10/26 14:08:05;;;;;;;15.30;7.05;;;14.70;1.00;;;;;;4438207;28;657782;-71
2021/10/26 14:10:52;;;;;;;14.17;6.70;;;14.30;1.00;;;;;;4425242;28;658340;-72
2021/10/26 14:13:42;;;;;;;20.13;7.30;;;14.40;1.00;;;;;;4444340;28;657687;-72
2021/10/26 14:16:30;;;;;;;14.33;7.17;;;14.90;1.00;;;;;;4465383;28;657950;-72
2021/10/26 14:19:19;;;;;;;20.30;7.33;;;15.50;1.00;;;;;;4438987;28;659205;-71
2021/10/26 14:22:07;;;;;;;15.73;7.40;;;15.70;1.00;;;;;;4412144;28;657633;-72
2021/10/26 14:24:55;;;;;;;15.87;7.43;;;15.50;1.00;;;;;;4430615;28;657324;-72
2021/10/26 14:27:42;;;;;;;18.63;7.40;;;15.20;1.00;;;;;;4407391;28;657964;-72
2021/10/26 14:30:31;;;;;;;19.23;8.00;;;14.90;1.00;;;;;;4427205;28;658058;-73
2021/10/26 14:33:18;;;;;;;19.07;7.50;;;14.50;1.00;;;;;;4433882;28;658726;-74